Ely Airport Yelland Field
KELY : rendu visible

Aérodrome :











RETROUVEZ-NOUS SUR...

 
LOGIN :

S'inscrire | Disclaimer

   EN    FR    IT 

 









Légende :    VFR   VFR Marginal   IFR   IFR Intensif   IFR Très Intensif
Visi : 
Plafond : 
>= 8 km
>= 3000ft
5 à 8 km
1000 à 3000 ft
1500m à 5 km
500 à 1000 ft
800 à 1500m
200 à 500 ft
< 800m
< 200 ft
Symboles :   Orages  Brouillard  Fortes neiges  Fortes précipitations  Vent > 20 kt






- Altitude de l'aérodrome : 6259 ft


KELY - Ely Yelland Field

DERNIER METAR :
  • 312053Z AUTO 19011G21KT 10SM CLR 27/M04 A3001 RMK AO2 PK WND 15030/1959 SLP055 T02671044 58011

METARs EXPIRÉS :
  • 311953Z AUTO 16019G26KT 10SM CLR 27/M06 A3003 RMK AO2 PK WND 17028/1938 SLP059 T02671061
  • 311853Z AUTO 16017G29KT 10SM CLR 26/M06 A3005 RMK AO2 PK WND 17029/1840 SLP066 T02561056

TAF KELY
Valide du 31 à 20h jusqu'au 01 à 18h UTC


311939Z 3120/0118 17018G28KT P6SM SCT120 BKN200
FM010400 19012G22KT P6SM FEW250
FM011200 18011KT P6SM SCT200
FIR KZLC / Amérique du Nord



MET'MAP, la Météo Aéronautique d'un coup d'oeil ! - Copyright ORBIFLY Décembre 2007 - Disclaimer

ORBIFLY MET'MAP TEAM :

Programmation & Développement : Alexandra Zaïnal
Sur une idée originale de : Baudouin d'Aumeries
Assistance à la programmation : Marc-Olivier Méhu
Soutien technique & logistique : Manuel Goepfert

Contact : metmap@orbifly.com




SOURCES & CREDITS :

   NOAA       Earth
Advisory